createdAt,value
2019-05-16T00:00:19.236Z,11.40
2019-05-16T00:01:19.529Z,11.36
2019-05-16T00:02:18.698Z,11.36
2019-05-16T00:03:18.751Z,11.35
2019-05-16T00:04:18.442Z,11.39
2019-05-16T00:05:18.827Z,11.35
2019-05-16T00:06:18.415Z,11.35
2019-05-16T00:07:19.252Z,11.33
2019-05-16T00:08:18.384Z,11.28
2019-05-16T00:09:18.434Z,11.39
2019-05-16T00:10:18.798Z,11.29
2019-05-16T00:11:18.353Z,11.29
2019-05-16T00:12:18.538Z,11.35
2019-05-16T00:13:18.706Z,11.35
2019-05-16T00:14:18.869Z,11.35
2019-05-16T00:15:18.429Z,11.33
2019-05-16T00:16:18.798Z,11.33
2019-05-16T00:17:18.869Z,11.27
2019-05-16T00:18:18.294Z,11.25
2019-05-16T00:19:18.276Z,11.39
2019-05-16T00:20:19.114Z,11.22
2019-05-16T00:21:18.240Z,11.32
2019-05-16T00:22:18.366Z,11.33
2019-05-16T00:23:18.350Z,11.36
2019-05-16T00:24:18.678Z,11.36
2019-05-16T00:25:18.204Z,11.32
2019-05-16T00:26:19.812Z,11.33
2019-05-16T00:27:18.583Z,11.28
2019-05-16T00:28:18.197Z,11.25
2019-05-16T00:29:18.462Z,11.28
2019-05-16T00:30:18.436Z,11.27
2019-05-16T00:31:18.435Z,11.24
2019-05-16T00:32:19.061Z,11.18
2019-05-16T00:33:18.459Z,11.37
2019-05-16T00:34:18.907Z,11.24
2019-05-16T00:35:18.378Z,11.28
2019-05-16T00:36:18.929Z,11.33
2019-05-16T00:37:18.287Z,11.27
2019-05-16T00:38:18.403Z,11.22
2019-05-16T00:39:18.767Z,11.25
2019-05-16T00:40:18.797Z,11.32
2019-05-16T00:41:18.192Z,11.25
2019-05-16T00:42:18.183Z,11.19
2019-05-16T00:43:18.368Z,11.22
2019-05-16T00:44:18.972Z,11.36
2019-05-16T00:45:18.585Z,11.25
2019-05-16T00:46:20.045Z,11.24
2019-05-16T00:47:18.035Z,11.25
2019-05-16T00:48:18.355Z,11.22
2019-05-16T00:49:18.694Z,11.25
2019-05-16T00:50:18.437Z,11.24
2019-05-16T00:51:18.434Z,11.29
2019-05-16T00:52:18.425Z,11.28
2019-05-16T00:53:18.263Z,11.24
2019-05-16T00:54:18.567Z,11.22
2019-05-16T00:55:18.141Z,11.24
2019-05-16T00:56:18.638Z,11.28
2019-05-16T00:57:18.822Z,11.28
2019-05-16T00:58:18.768Z,11.17
2019-05-16T00:59:18.351Z,11.27
2019-05-16T01:00:18.192Z,11.24
2019-05-16T01:01:18.977Z,11.15
2019-05-16T01:02:18.182Z,11.19
2019-05-16T01:03:20.267Z,11.24
2019-05-16T01:04:18.316Z,11.19
2019-05-16T01:05:19.122Z,11.09
2019-05-16T01:06:22.545Z,11.10
2019-05-16T01:07:18.827Z,11.10
2019-05-16T01:08:18.964Z,11.15
2019-05-16T01:09:18.796Z,11.14
2019-05-16T01:10:18.325Z,11.04
2019-05-16T01:11:18.443Z,11.11
2019-05-16T01:12:17.868Z,10.99
2019-05-16T01:13:18.630Z,11.06
2019-05-16T01:14:17.794Z,11.03
2019-05-16T01:15:18.422Z,11.04
2019-05-16T01:16:18.737Z,11.00
2019-05-16T01:17:18.235Z,10.92
2019-05-16T01:18:18.820Z,10.94
2019-05-16T01:19:18.681Z,10.96
2019-05-16T01:20:19.155Z,10.92
2019-05-16T01:21:18.528Z,10.99
2019-05-16T01:22:18.709Z,10.99
2019-05-16T01:23:18.260Z,10.91
2019-05-16T01:24:18.773Z,10.96
2019-05-16T01:25:19.562Z,11.00
2019-05-16T01:26:18.618Z,10.92
2019-05-16T01:27:18.489Z,10.89
2019-05-16T01:28:18.061Z,10.96
2019-05-16T01:29:18.880Z,10.92
2019-05-16T01:30:18.622Z,10.88
2019-05-16T01:31:19.176Z,10.91
2019-05-16T01:32:18.990Z,10.91
2019-05-16T01:33:19.154Z,10.88
2019-05-16T01:34:18.136Z,10.85
2019-05-16T01:35:18.820Z,10.88
2019-05-16T01:36:26.299Z,10.84
2019-05-16T01:37:18.659Z,10.86
2019-05-16T01:38:18.118Z,10.86
2019-05-16T01:39:18.246Z,10.86
2019-05-16T01:40:18.861Z,10.84
2019-05-16T01:41:18.065Z,10.89
2019-05-16T01:42:18.435Z,10.84
2019-05-16T01:43:17.867Z,10.84
2019-05-16T01:44:18.322Z,10.70
2019-05-16T01:45:18.812Z,10.74
2019-05-16T01:46:18.020Z,10.81
2019-05-16T01:47:18.320Z,10.79
2019-05-16T01:48:19.151Z,10.84
2019-05-16T01:49:18.744Z,10.79
2019-05-16T01:50:18.073Z,10.78
2019-05-16T01:51:18.426Z,10.78
2019-05-16T01:52:17.850Z,10.71
2019-05-16T01:53:17.838Z,10.71
2019-05-16T01:54:18.002Z,10.73
2019-05-16T01:55:18.714Z,10.66
2019-05-16T01:56:17.912Z,10.73
2019-05-16T01:57:18.157Z,10.73
2019-05-16T01:58:19.824Z,10.68
2019-05-16T01:59:18.196Z,10.71
2019-05-16T02:00:23.248Z,10.64
2019-05-16T02:01:19.013Z,10.66
2019-05-16T02:02:18.407Z,10.61
2019-05-16T02:03:19.013Z,10.61
2019-05-16T02:04:18.372Z,10.63
2019-05-16T02:05:18.820Z,10.66
2019-05-16T02:06:18.428Z,10.59
2019-05-16T02:07:18.825Z,10.55
2019-05-16T02:08:18.283Z,10.63
2019-05-16T02:09:18.853Z,10.61
2019-05-16T02:10:18.176Z,10.56
2019-05-16T02:11:18.133Z,10.56
2019-05-16T02:12:18.450Z,10.55
2019-05-16T02:13:17.945Z,10.55
2019-05-16T02:14:17.695Z,10.52
2019-05-16T02:15:18.232Z,10.52
2019-05-16T02:16:18.678Z,10.55
2019-05-16T02:17:18.399Z,10.55
2019-05-16T02:18:18.415Z,10.45
2019-05-16T02:19:18.784Z,10.47
2019-05-16T02:20:17.955Z,10.53
2019-05-16T02:21:18.237Z,10.47
2019-05-16T02:22:17.916Z,10.52
2019-05-16T02:23:18.707Z,10.52
2019-05-16T02:24:18.266Z,10.60
2019-05-16T02:25:18.531Z,10.48
2019-05-16T02:26:19.201Z,10.51
2019-05-16T02:27:18.274Z,10.45
2019-05-16T02:28:16.852Z,10.47
2019-05-16T02:29:16.852Z,10.47
2019-05-16T02:30:16.851Z,10.48
2019-05-16T02:31:16.848Z,10.51
2019-05-16T02:32:16.808Z,10.47
2019-05-16T02:33:16.798Z,10.48
2019-05-16T02:34:16.833Z,10.45
2019-05-16T02:35:16.773Z,10.53
2019-05-16T02:36:16.800Z,10.47
2019-05-16T02:37:24.496Z,10.42
2019-05-16T02:38:20.883Z,10.48
2019-05-16T02:39:16.730Z,10.51
2019-05-16T02:40:16.724Z,10.47
2019-05-16T02:41:16.733Z,10.45
2019-05-16T02:42:16.701Z,10.51
2019-05-16T02:43:16.694Z,10.41
2019-05-16T02:44:16.711Z,10.45
2019-05-16T02:45:16.678Z,10.36
2019-05-16T02:46:16.674Z,10.40
2019-05-16T02:47:16.644Z,10.40
2019-05-16T02:48:16.638Z,10.34
2019-05-16T02:49:16.630Z,10.38
2019-05-16T02:50:16.613Z,10.34
2019-05-16T02:51:16.633Z,10.41
2019-05-16T02:52:16.597Z,10.33
2019-05-16T02:53:16.581Z,10.34
2019-05-16T02:54:16.566Z,10.33
2019-05-16T02:55:16.567Z,10.32
2019-05-16T02:56:16.563Z,10.41
2019-05-16T02:57:16.536Z,10.30
2019-05-16T02:58:16.527Z,10.34
2019-05-16T02:59:16.509Z,10.36
2019-05-16T03:00:16.499Z,10.40
2019-05-16T03:01:16.513Z,10.33
2019-05-16T03:02:16.515Z,10.38
2019-05-16T03:03:16.474Z,10.26
2019-05-16T03:04:16.452Z,10.30
2019-05-16T03:05:16.454Z,10.36
2019-05-16T03:06:16.433Z,10.29
2019-05-16T03:07:33.018Z,10.27
2019-05-16T03:08:17.426Z,10.26
2019-05-16T03:09:16.404Z,10.29
2019-05-16T03:10:16.384Z,10.23
2019-05-16T03:11:16.404Z,10.26
2019-05-16T03:12:16.399Z,10.25
2019-05-16T03:13:16.353Z,10.22
2019-05-16T03:14:16.366Z,10.25
2019-05-16T03:15:16.336Z,10.18
2019-05-16T03:16:16.327Z,10.18
2019-05-16T03:17:16.328Z,10.23
2019-05-16T03:18:16.336Z,10.25
2019-05-16T03:19:16.298Z,10.18
2019-05-16T03:20:16.294Z,10.17
2019-05-16T03:21:16.268Z,10.20
2019-05-16T03:22:16.275Z,10.18
2019-05-16T03:23:16.245Z,10.14
2019-05-16T03:24:16.239Z,10.05
2019-05-16T03:25:16.223Z,10.15
2019-05-16T03:26:16.269Z,10.22
2019-05-16T03:27:16.229Z,10.11
2019-05-16T03:28:16.194Z,10.11
2019-05-16T03:29:16.187Z,10.12
2019-05-16T03:30:17.134Z,10.09
2019-05-16T03:31:16.245Z,10.05
2019-05-16T03:32:16.165Z,9.97
2019-05-16T03:33:24.281Z,9.97
2019-05-16T03:34:19.035Z,10.09
2019-05-16T03:35:17.559Z,9.99
2019-05-16T03:36:16.559Z,9.99
2019-05-16T03:37:16.108Z,10.01
2019-05-16T03:38:16.095Z,9.97
2019-05-16T03:39:16.076Z,9.97
2019-05-16T03:40:16.070Z,9.97
2019-05-16T03:41:16.047Z,10.04
2019-05-16T03:42:16.036Z,10.01
2019-05-16T03:43:16.039Z,10.01
2019-05-16T03:44:16.012Z,10.01
2019-05-16T03:45:16.013Z,9.93
2019-05-16T03:46:16.005Z,9.94
2019-05-16T03:47:15.989Z,9.96
2019-05-16T03:48:15.992Z,9.96
2019-05-16T03:49:15.959Z,9.96
2019-05-16T03:50:15.953Z,9.99
2019-05-16T03:51:15.938Z,9.94
2019-05-16T03:52:15.920Z,9.96
2019-05-16T03:53:15.931Z,9.91
2019-05-16T03:54:15.931Z,9.97
2019-05-16T03:55:15.944Z,9.94
2019-05-16T03:56:15.878Z,9.87
2019-05-16T03:57:15.881Z,9.87
2019-05-16T03:58:15.898Z,9.90
2019-05-16T03:59:15.851Z,9.97
2019-05-16T04:00:15.835Z,9.99
2019-05-16T04:01:15.820Z,9.87
2019-05-16T04:02:15.823Z,9.99
2019-05-16T04:03:15.817Z,9.94
2019-05-16T04:04:15.820Z,9.96
2019-05-16T04:05:15.782Z,9.94
2019-05-16T04:06:15.773Z,9.94
2019-05-16T04:07:15.765Z,9.93
2019-05-16T04:08:20.884Z,9.87
2019-05-16T04:09:16.774Z,9.89
2019-05-16T04:10:15.722Z,9.94
2019-05-16T04:11:18.586Z,9.87
2019-05-16T04:12:16.747Z,9.90
2019-05-16T04:13:15.728Z,9.96
2019-05-16T04:14:15.690Z,9.87
2019-05-16T04:15:15.679Z,9.91
2019-05-16T04:16:15.653Z,9.91
2019-05-16T04:17:15.653Z,9.93
2019-05-16T04:18:15.736Z,9.93
2019-05-16T04:19:15.655Z,9.93
2019-05-16T04:20:15.614Z,9.96
2019-05-16T04:21:17.668Z,10.01
2019-05-16T04:22:16.599Z,9.91
2019-05-16T04:23:15.574Z,9.97
2019-05-16T04:24:15.612Z,9.96
2019-05-16T04:25:15.553Z,10.02
2019-05-16T04:26:15.563Z,9.96
2019-05-16T04:27:15.537Z,9.91
2019-05-16T04:28:15.540Z,9.99
2019-05-16T04:29:15.541Z,9.94
2019-05-16T04:30:15.498Z,10.02
2019-05-16T04:31:15.493Z,9.91
2019-05-16T04:32:15.499Z,9.91
2019-05-16T04:33:15.471Z,9.96
2019-05-16T04:34:15.469Z,10.02
2019-05-16T04:35:15.618Z,9.91
2019-05-16T04:36:15.431Z,10.05
2019-05-16T04:37:15.420Z,9.99
2019-05-16T04:38:30.215Z,9.96
2019-05-16T04:39:16.423Z,9.91
2019-05-16T04:40:15.396Z,10.04
2019-05-16T04:41:15.413Z,9.93
2019-05-16T04:42:15.370Z,9.91
2019-05-16T04:43:15.392Z,10.01
2019-05-16T04:44:15.373Z,10.01
2019-05-16T04:45:15.337Z,9.96
2019-05-16T04:46:15.331Z,9.93
2019-05-16T04:47:15.329Z,10.02
2019-05-16T04:48:15.304Z,9.99
2019-05-16T04:49:15.309Z,10.02
2019-05-16T04:50:15.290Z,10.02
2019-05-16T04:51:15.268Z,10.02
2019-05-16T04:52:15.265Z,9.97
2019-05-16T04:53:15.241Z,10.04
2019-05-16T04:54:15.272Z,10.02
2019-05-16T04:55:15.250Z,10.08
2019-05-16T04:56:15.211Z,10.08
2019-05-16T04:57:15.212Z,10.11
2019-05-16T04:58:15.207Z,10.05
2019-05-16T04:59:16.932Z,10.08
2019-05-16T05:00:15.180Z,10.02
2019-05-16T05:01:15.169Z,10.08
2019-05-16T05:02:15.155Z,10.09
2019-05-16T05:03:15.133Z,10.04
2019-05-16T05:04:15.709Z,10.02
2019-05-16T05:05:15.129Z,10.01
2019-05-16T05:06:15.100Z,10.12
2019-05-16T05:07:15.091Z,10.05
2019-05-16T05:08:15.086Z,10.08
2019-05-16T05:09:15.079Z,10.09
2019-05-16T05:10:15.069Z,10.05
2019-05-16T05:11:15.144Z,10.11
2019-05-16T05:12:15.046Z,10.09
2019-05-16T05:13:15.024Z,10.08
2019-05-16T05:14:15.012Z,10.12
2019-05-16T05:15:15.037Z,10.11
2019-05-16T05:16:15.004Z,10.12
2019-05-16T05:17:14.979Z,10.09
2019-05-16T05:18:14.977Z,10.11
2019-05-16T05:19:14.957Z,10.15
2019-05-16T05:20:14.980Z,10.02
2019-05-16T05:21:14.933Z,10.11
2019-05-16T05:22:14.928Z,10.15
2019-05-16T05:23:14.921Z,10.07
2019-05-16T05:24:14.909Z,10.07
2019-05-16T05:25:14.933Z,10.22
2019-05-16T05:26:14.910Z,10.20
2019-05-16T05:27:14.870Z,10.22
2019-05-16T05:28:14.936Z,10.20
2019-05-16T05:29:14.843Z,10.23
2019-05-16T05:30:14.857Z,10.22
2019-05-16T05:31:14.846Z,10.27
2019-05-16T05:32:14.826Z,10.30
2019-05-16T05:33:14.808Z,10.23
2019-05-16T05:34:14.793Z,10.18
2019-05-16T05:35:14.815Z,10.30
2019-05-16T05:36:14.794Z,10.38
2019-05-16T05:37:14.758Z,10.32
2019-05-16T05:38:14.753Z,10.29
2019-05-16T05:39:15.579Z,10.26
2019-05-16T05:40:14.743Z,10.23
2019-05-16T05:41:15.075Z,10.27
2019-05-16T05:42:14.719Z,10.38
2019-05-16T05:43:14.697Z,10.36
2019-05-16T05:44:14.682Z,10.32
2019-05-16T05:45:14.676Z,10.34
2019-05-16T05:46:14.687Z,10.40
2019-05-16T05:47:14.669Z,10.33
2019-05-16T05:48:14.647Z,10.36
2019-05-16T05:49:14.629Z,10.36
2019-05-16T05:50:14.713Z,10.42
2019-05-16T05:51:14.638Z,10.34
2019-05-16T05:52:14.585Z,10.34
2019-05-16T05:53:14.574Z,10.36
2019-05-16T05:54:14.565Z,10.38
2019-05-16T05:55:14.571Z,10.36
2019-05-16T05:56:14.722Z,10.40
2019-05-16T05:57:14.554Z,10.41
2019-05-16T05:58:14.520Z,10.47
2019-05-16T05:59:14.515Z,10.36
2019-05-16T06:00:14.511Z,10.42
2019-05-16T06:01:14.533Z,10.45
2019-05-16T06:02:14.482Z,10.42
2019-05-16T06:03:14.485Z,10.44
2019-05-16T06:04:14.466Z,10.48
2019-05-16T06:05:14.453Z,10.56
2019-05-16T06:06:14.453Z,10.47
2019-05-16T06:07:14.446Z,10.52
2019-05-16T06:08:14.410Z,10.51
2019-05-16T06:09:26.161Z,10.48
2019-05-16T06:10:15.404Z,10.60
2019-05-16T06:11:14.393Z,10.56
2019-05-16T06:12:14.372Z,10.56
2019-05-16T06:13:14.399Z,10.60
2019-05-16T06:14:14.358Z,10.56
2019-05-16T06:15:14.357Z,10.64
2019-05-16T06:16:14.366Z,10.66
2019-05-16T06:17:14.324Z,10.66
2019-05-16T06:18:14.315Z,10.68
2019-05-16T06:19:14.287Z,10.66
2019-05-16T06:20:14.935Z,10.74
2019-05-16T06:21:14.319Z,10.68
2019-05-16T06:22:14.259Z,10.70
2019-05-16T06:23:14.252Z,10.76
2019-05-16T06:24:16.175Z,10.76
2019-05-16T06:25:14.223Z,10.74
2019-05-16T06:26:14.221Z,10.86
2019-05-16T06:27:14.234Z,10.84
2019-05-16T06:28:14.200Z,10.86
2019-05-16T06:29:14.191Z,10.88
2019-05-16T06:30:14.192Z,10.85
2019-05-16T06:31:14.575Z,10.86
2019-05-16T06:32:14.163Z,10.88
2019-05-16T06:33:14.139Z,10.86
2019-05-16T06:34:15.254Z,10.85
2019-05-16T06:35:14.120Z,10.94
2019-05-16T06:36:14.103Z,10.91
2019-05-16T06:37:14.111Z,10.92
2019-05-16T06:38:14.092Z,10.88
2019-05-16T06:39:14.069Z,10.99
2019-05-16T06:40:14.059Z,10.94
2019-05-16T06:41:14.049Z,10.94
2019-05-16T06:42:14.076Z,10.99
2019-05-16T06:43:14.030Z,10.99
2019-05-16T06:44:14.033Z,10.99
2019-05-16T06:45:13.998Z,11.02
2019-05-16T06:46:14.018Z,11.06
2019-05-16T06:47:19.701Z,11.09
2019-05-16T06:48:14.976Z,10.99
2019-05-16T06:49:13.960Z,11.04
2019-05-16T06:50:13.973Z,11.06
2019-05-16T06:51:13.934Z,11.04
2019-05-16T06:52:13.946Z,11.09
2019-05-16T06:53:13.914Z,11.03
2019-05-16T06:54:13.951Z,11.10
2019-05-16T06:55:13.888Z,11.14
2019-05-16T06:56:13.903Z,11.07
2019-05-16T06:57:13.968Z,11.07
2019-05-16T06:58:13.893Z,11.06
2019-05-16T06:59:13.844Z,11.19
2019-05-16T07:00:13.843Z,11.17
2019-05-16T07:01:13.835Z,11.14
2019-05-16T07:02:26.758Z,11.14
2019-05-16T07:03:14.829Z,11.19
2019-05-16T07:04:13.796Z,11.27
2019-05-16T07:05:13.798Z,11.28
2019-05-16T07:06:29.704Z,11.24
2019-05-16T07:07:14.761Z,11.28
2019-05-16T07:08:13.779Z,11.29
2019-05-16T07:09:13.760Z,11.32
2019-05-16T07:10:13.735Z,11.19
2019-05-16T07:11:13.713Z,11.27
2019-05-16T07:12:13.709Z,11.29
2019-05-16T07:13:13.712Z,11.27
2019-05-16T07:14:13.697Z,11.35
2019-05-16T07:15:13.699Z,11.27
2019-05-16T07:16:13.664Z,11.37
2019-05-16T07:17:13.660Z,11.28
2019-05-16T07:18:13.660Z,11.29
2019-05-16T07:19:13.638Z,11.33
2019-05-16T07:20:13.616Z,11.32
2019-05-16T07:21:13.630Z,11.32
2019-05-16T07:22:13.645Z,11.28
2019-05-16T07:23:13.613Z,11.36
2019-05-16T07:24:13.571Z,11.46
2019-05-16T07:25:13.569Z,11.39
2019-05-16T07:26:13.557Z,11.39
2019-05-16T07:27:13.556Z,11.36
2019-05-16T07:28:13.566Z,11.43
2019-05-16T07:29:13.523Z,11.42
2019-05-16T07:30:13.517Z,11.47
2019-05-16T07:31:18.347Z,11.49
2019-05-16T07:32:14.488Z,11.55
2019-05-16T07:33:13.495Z,11.54
2019-05-16T07:34:14.671Z,11.65
2019-05-16T07:35:13.467Z,11.73
2019-05-16T07:36:15.905Z,11.69
2019-05-16T07:37:13.463Z,11.70
2019-05-16T07:38:13.422Z,11.79
2019-05-16T07:39:13.447Z,11.82
2019-05-16T07:40:19.678Z,11.82
2019-05-16T07:41:14.401Z,11.86
2019-05-16T07:42:13.378Z,11.86
2019-05-16T07:43:13.374Z,11.95
2019-05-16T07:44:13.385Z,11.96
2019-05-16T07:45:13.353Z,11.99
2019-05-16T07:46:13.332Z,12.12
2019-05-16T07:47:13.331Z,12.07
2019-05-16T07:48:13.310Z,12.20
2019-05-16T07:49:13.342Z,12.16
2019-05-16T07:50:13.310Z,12.16
2019-05-16T07:51:13.286Z,12.17
2019-05-16T07:52:13.291Z,12.27
2019-05-16T07:53:13.282Z,12.23
2019-05-16T07:54:13.280Z,12.23
2019-05-16T07:55:13.258Z,12.35
2019-05-16T07:56:13.233Z,12.37
2019-05-16T07:57:19.520Z,12.37
2019-05-16T07:58:14.214Z,12.47
2019-05-16T07:59:13.186Z,12.52
2019-05-16T08:00:13.206Z,12.50
2019-05-16T08:01:13.171Z,12.62
2019-05-16T08:02:13.167Z,12.57
2019-05-16T08:03:13.153Z,12.71
2019-05-16T08:04:13.192Z,12.72
2019-05-16T08:05:13.117Z,12.74
2019-05-16T08:06:13.127Z,12.74
2019-05-16T08:07:13.107Z,12.83
2019-05-16T08:08:13.095Z,12.96
2019-05-16T08:09:13.197Z,12.87
2019-05-16T08:10:13.088Z,12.95
2019-05-16T08:11:13.069Z,12.95
2019-05-16T08:12:13.039Z,12.95
2019-05-16T08:13:13.321Z,12.96
2019-05-16T08:14:13.034Z,13.03
2019-05-16T08:15:13.037Z,13.01
2019-05-16T08:16:13.008Z,13.03
2019-05-16T08:17:12.988Z,13.14
2019-05-16T08:18:13.003Z,13.15
2019-05-16T08:19:12.990Z,13.19
2019-05-16T08:20:13.002Z,13.30
2019-05-16T08:21:16.742Z,13.36
2019-05-16T08:22:12.949Z,13.41
2019-05-16T08:23:12.975Z,13.48
2019-05-16T08:24:15.102Z,13.49
2019-05-16T08:25:12.911Z,13.55
2019-05-16T08:26:12.894Z,13.59
2019-05-16T08:27:12.898Z,13.67
2019-05-16T08:28:12.867Z,13.71
2019-05-16T08:29:13.547Z,13.81
2019-05-16T08:30:12.857Z,13.92
2019-05-16T08:31:12.833Z,13.87
2019-05-16T08:32:12.869Z,13.95
2019-05-16T08:33:13.688Z,14.00
2019-05-16T08:34:12.810Z,14.09
2019-05-16T08:35:12.810Z,14.03
2019-05-16T08:36:12.825Z,14.02
2019-05-16T08:37:33.094Z,14.07
2019-05-16T08:38:13.766Z,14.17
2019-05-16T08:39:12.736Z,14.17
2019-05-16T08:40:12.726Z,14.24
2019-05-16T08:41:16.897Z,14.22
2019-05-16T08:42:13.325Z,14.27
2019-05-16T08:43:12.706Z,14.20
2019-05-16T08:44:12.858Z,14.20
2019-05-16T08:45:13.126Z,14.20
2019-05-16T08:46:12.735Z,14.28
2019-05-16T08:47:12.661Z,14.24
2019-05-16T08:48:12.639Z,14.28
2019-05-16T08:49:12.857Z,14.37
2019-05-16T08:50:14.703Z,14.43
2019-05-16T08:51:12.622Z,14.54
2019-05-16T08:52:12.600Z,14.52
2019-05-16T08:53:13.809Z,14.57
2019-05-16T08:54:13.658Z,14.72
2019-05-16T08:55:13.670Z,14.70
2019-05-16T08:56:13.324Z,14.80
2019-05-16T08:58:13.759Z,14.99
2019-05-16T08:59:13.476Z,15.11
2019-05-16T09:00:14.638Z,15.25
2019-05-16T09:01:14.807Z,15.35
2019-05-16T09:02:12.786Z,15.39
2019-05-16T09:03:12.576Z,15.46
2019-05-16T09:04:12.468Z,15.54
2019-05-16T09:05:13.842Z,15.46
2019-05-16T09:06:12.487Z,15.59
2019-05-16T09:07:12.784Z,15.71
2019-05-16T09:08:12.437Z,15.69
2019-05-16T09:09:29.511Z,15.74
2019-05-16T09:10:15.889Z,14.88
2019-05-16T09:10:45.716Z,15.75
2019-05-16T09:11:33.954Z,15.74
2019-05-16T09:12:13.417Z,15.75
2019-05-16T09:13:12.362Z,15.75
2019-05-16T09:14:12.355Z,15.82
2019-05-16T09:15:12.340Z,15.87
2019-05-16T09:16:12.397Z,15.92
2019-05-16T09:17:12.343Z,15.96
2019-05-16T09:18:12.311Z,15.96
2019-05-16T09:19:12.297Z,16.04
2019-05-16T09:20:12.302Z,16.12
2019-05-16T09:21:12.307Z,16.09
2019-05-16T09:22:12.269Z,16.17
2019-05-16T09:23:12.257Z,16.21
2019-05-16T09:24:12.262Z,16.27
2019-05-16T09:25:12.234Z,16.28
2019-05-16T09:26:15.985Z,16.28
2019-05-16T09:27:13.516Z,16.24
2019-05-16T09:28:12.197Z,16.28
2019-05-16T09:29:12.185Z,16.34
2019-05-16T09:30:12.190Z,16.39
2019-05-16T09:31:12.193Z,16.39
2019-05-16T09:32:20.410Z,16.42
2019-05-16T09:33:13.142Z,16.39
2019-05-16T09:34:12.130Z,16.42
2019-05-16T09:35:12.122Z,16.41
2019-05-16T09:36:12.115Z,16.35
2019-05-16T09:37:12.118Z,16.39
2019-05-16T09:38:12.089Z,16.42
2019-05-16T09:39:12.105Z,16.43
2019-05-16T09:40:12.067Z,16.45
2019-05-16T09:41:12.071Z,16.45
2019-05-16T09:42:12.057Z,16.52
2019-05-16T09:43:12.045Z,16.57
2019-05-16T09:44:12.032Z,16.66
2019-05-16T09:45:12.011Z,16.64
2019-05-16T09:46:11.997Z,16.71
2019-05-16T09:47:12.012Z,16.67
2019-05-16T09:48:11.989Z,16.78
2019-05-16T09:49:19.328Z,16.76
2019-05-16T09:50:12.949Z,16.78
2019-05-16T09:51:11.943Z,16.83
2019-05-16T09:52:11.968Z,16.89
2019-05-16T09:53:11.937Z,17.03
2019-05-16T09:54:11.923Z,16.96
2019-05-16T09:55:11.900Z,17.01
2019-05-16T09:56:11.890Z,17.16
2019-05-16T09:57:11.887Z,17.22
2019-05-16T09:58:11.884Z,17.16
2019-05-16T09:59:11.860Z,17.23
2019-05-16T10:00:11.870Z,17.23
2019-05-16T10:01:11.832Z,17.33
2019-05-16T10:02:11.860Z,17.25
2019-05-16T10:03:11.812Z,17.22
2019-05-16T10:04:11.800Z,17.23
2019-05-16T10:05:13.543Z,17.12
2019-05-16T10:06:11.779Z,17.07
2019-05-16T10:07:11.762Z,17.00
2019-05-16T10:08:11.768Z,16.94
2019-05-16T10:09:11.747Z,16.91
2019-05-16T10:10:11.730Z,16.88
2019-05-16T10:11:11.738Z,16.78
2019-05-16T10:12:15.514Z,16.81
2019-05-16T10:13:12.718Z,16.68
2019-05-16T10:14:11.687Z,16.61
2019-05-16T10:15:11.692Z,16.61
2019-05-16T10:16:11.662Z,16.43
2019-05-16T10:17:11.655Z,16.48
2019-05-16T10:18:11.680Z,16.50
2019-05-16T10:19:11.649Z,16.50
2019-05-16T10:20:11.622Z,16.56
2019-05-16T10:21:11.607Z,16.46
2019-05-16T10:22:11.630Z,16.35
2019-05-16T10:23:14.812Z,16.34
2019-05-16T10:24:12.610Z,16.27
2019-05-16T10:25:11.562Z,16.31
2019-05-16T10:26:11.559Z,16.28
2019-05-16T10:27:11.549Z,16.30
2019-05-16T10:28:11.583Z,16.30
2019-05-16T10:29:11.538Z,16.28
2019-05-16T10:30:11.511Z,16.28
2019-05-16T10:31:11.503Z,16.25
2019-05-16T10:32:11.499Z,16.25
2019-05-16T10:33:11.479Z,16.35
2019-05-16T10:34:11.524Z,16.48
2019-05-16T10:35:11.453Z,16.57
2019-05-16T10:36:11.450Z,16.58
2019-05-16T10:37:11.431Z,16.73
2019-05-16T10:38:11.455Z,16.86
2019-05-16T10:39:11.433Z,16.82
2019-05-16T10:40:11.401Z,16.97
2019-05-16T10:41:11.399Z,16.98
2019-05-16T10:42:24.861Z,16.96
2019-05-16T10:43:12.398Z,17.00
2019-05-16T10:44:11.373Z,17.03
2019-05-16T10:45:11.361Z,17.04
2019-05-16T10:46:11.332Z,16.98
2019-05-16T10:47:11.329Z,16.98
2019-05-16T10:48:11.322Z,16.98
2019-05-16T10:49:11.338Z,17.01
2019-05-16T10:50:11.293Z,17.06
2019-05-16T10:51:11.280Z,17.07
2019-05-16T10:52:11.278Z,17.01
2019-05-16T10:53:32.371Z,17.07
2019-05-16T10:54:14.258Z,17.04
2019-05-16T10:55:11.270Z,17.07
2019-05-16T10:56:11.260Z,17.01
2019-05-16T10:57:11.295Z,17.03
2019-05-16T10:58:11.222Z,16.86
2019-05-16T10:59:50.241Z,16.85
2019-05-16T11:00:21.443Z,16.79
2019-05-16T11:01:24.461Z,16.73
2019-05-16T11:02:12.202Z,16.66
2019-05-16T11:03:11.144Z,16.64
2019-05-16T11:04:24.226Z,16.56
2019-05-16T11:05:25.143Z,16.50
2019-05-16T11:06:24.826Z,16.50
2019-05-16T11:07:12.179Z,16.38
2019-05-16T11:08:11.171Z,16.39
2019-05-16T11:09:11.136Z,16.41
2019-05-16T11:10:11.069Z,16.46
2019-05-16T11:11:11.059Z,16.43
2019-05-16T11:12:11.061Z,16.50
2019-05-16T11:13:11.064Z,16.48
2019-05-16T11:14:11.047Z,16.48
2019-05-16T11:15:11.632Z,16.48
2019-05-16T11:16:11.010Z,16.46
2019-05-16T11:17:13.322Z,16.39
2019-05-16T11:18:10.977Z,16.43
2019-05-16T11:19:17.387Z,16.42
2019-05-16T11:20:12.028Z,16.42
2019-05-16T11:21:10.955Z,16.38
2019-05-16T11:22:10.943Z,16.52
2019-05-16T11:23:10.919Z,16.52
2019-05-16T11:24:13.222Z,16.57
2019-05-16T11:25:24.222Z,16.64
2019-05-16T11:26:11.890Z,16.70
2019-05-16T11:27:10.881Z,16.85
2019-05-16T11:28:10.875Z,16.94
2019-05-16T11:29:10.879Z,16.91
2019-05-16T11:30:10.897Z,16.93
2019-05-16T11:31:10.870Z,17.04
2019-05-16T11:32:10.833Z,17.08
2019-05-16T11:33:10.823Z,17.12
2019-05-16T11:34:10.812Z,17.31
2019-05-16T11:35:10.854Z,17.25
2019-05-16T11:36:12.971Z,17.26
2019-05-16T11:37:10.781Z,17.40
2019-05-16T11:38:10.762Z,17.46
2019-05-16T11:39:10.753Z,17.46
2019-05-16T11:40:10.758Z,17.48
2019-05-16T11:41:10.762Z,17.52
2019-05-16T11:42:10.725Z,17.58
2019-05-16T11:43:18.017Z,17.63
2019-05-16T11:44:11.708Z,17.64
2019-05-16T11:45:10.985Z,17.68
2019-05-16T11:46:10.688Z,17.77
2019-05-16T11:47:10.673Z,17.74
2019-05-16T11:48:10.668Z,17.64
2019-05-16T11:49:10.635Z,17.71
2019-05-16T11:50:10.635Z,17.71
2019-05-16T11:51:10.643Z,17.84
2019-05-16T11:52:10.616Z,17.86
2019-05-16T11:53:10.600Z,17.96
2019-05-16T11:54:10.607Z,18.02
2019-05-16T11:55:10.602Z,18.02
2019-05-16T11:56:10.581Z,18.10
2019-05-16T11:57:10.548Z,18.18
2019-05-16T11:58:10.570Z,18.21
2019-05-16T11:59:10.548Z,18.18
2019-05-16T12:00:10.535Z,18.27
2019-05-16T12:01:10.523Z,18.29
2019-05-16T12:02:10.522Z,18.27
2019-05-16T12:03:10.485Z,18.32
2019-05-16T12:04:10.483Z,18.33
2019-05-16T12:05:10.491Z,18.32
2019-05-16T12:06:11.325Z,18.35
2019-05-16T12:07:10.445Z,18.37
2019-05-16T12:08:10.429Z,18.36
2019-05-16T12:09:10.429Z,18.39
2019-05-16T12:10:10.407Z,18.36
2019-05-16T12:11:10.402Z,18.45
2019-05-16T12:12:10.427Z,18.50
2019-05-16T12:13:24.315Z,18.45
2019-05-16T12:14:11.357Z,18.50
2019-05-16T12:15:10.363Z,18.70
2019-05-16T12:16:10.353Z,18.72
2019-05-16T12:17:10.376Z,18.69
2019-05-16T12:18:10.338Z,18.75
2019-05-16T12:19:10.303Z,18.76
2019-05-16T12:20:10.301Z,18.87
2019-05-16T12:21:10.289Z,18.94
2019-05-16T12:22:10.295Z,18.95
2019-05-16T12:23:10.273Z,19.04
2019-05-16T12:24:10.272Z,19.00
2019-05-16T12:25:10.238Z,18.98
2019-05-16T12:26:10.248Z,18.91
2019-05-16T12:27:10.309Z,18.85
2019-05-16T12:28:10.204Z,18.87
2019-05-16T12:29:10.197Z,18.91
2019-05-16T12:30:13.617Z,18.91
2019-05-16T12:31:10.192Z,18.90
2019-05-16T12:32:10.199Z,18.91
2019-05-16T12:33:10.161Z,18.92
2019-05-16T12:34:10.275Z,18.95
2019-05-16T12:35:10.140Z,19.02
2019-05-16T12:36:10.150Z,18.92
2019-05-16T12:37:10.137Z,18.92
2019-05-16T12:38:10.115Z,19.02
2019-05-16T12:39:10.098Z,19.02
2019-05-16T12:40:10.083Z,18.98
2019-05-16T12:41:10.078Z,19.00
2019-05-16T12:42:10.232Z,18.99
2019-05-16T12:43:10.041Z,19.08
2019-05-16T12:44:10.041Z,19.02
2019-05-16T12:45:10.049Z,18.98
2019-05-16T12:46:10.009Z,18.95
2019-05-16T12:47:10.044Z,18.91
2019-05-16T12:48:10.045Z,18.87
2019-05-16T12:49:09.985Z,18.78
2019-05-16T12:50:09.985Z,18.73
2019-05-16T12:51:09.957Z,18.75
2019-05-16T12:52:09.974Z,18.78
2019-05-16T12:53:09.938Z,18.70
2019-05-16T12:54:09.917Z,18.73